createdAt,value
2022-11-14T06:16:03.357Z,17.24
2022-11-14T06:26:03.418Z,16.47
2022-11-14T06:36:03.298Z,16.39
2022-11-14T06:46:03.307Z,12.80
2022-11-14T06:56:03.310Z,18.03
2022-11-14T07:06:03.297Z,16.70
2022-11-14T07:16:03.382Z,17.71
2022-11-14T07:26:03.477Z,16.37
2022-11-14T07:36:03.296Z,13.40
2022-11-14T07:46:03.452Z,16.43
2022-11-14T07:56:03.293Z,16.96
2022-11-14T08:06:03.526Z,18.88
2022-11-14T08:16:05.667Z,14.57
2022-11-14T08:26:03.506Z,13.68
2022-11-14T08:36:03.635Z,16.29
2022-11-14T08:46:03.485Z,13.03
2022-11-14T08:56:03.373Z,14.13
2022-11-14T09:06:03.458Z,12.35
2022-11-14T09:16:03.474Z,9.24
2022-11-14T09:26:03.601Z,9.78
2022-11-14T09:36:03.624Z,10.75
2022-11-14T09:46:03.363Z,11.57
2022-11-14T09:56:03.593Z,12.67
2022-11-14T10:06:03.598Z,10.70
2022-11-14T10:16:03.583Z,9.37
2022-11-14T10:26:03.452Z,10.60
2022-11-14T10:36:03.521Z,9.98
2022-11-14T10:46:03.564Z,10.27
2022-11-14T10:56:04.985Z,10.54
2022-11-14T11:06:03.527Z,12.20
2022-11-14T11:16:03.421Z,11.48
2022-11-14T11:26:03.544Z,9.72
2022-11-14T11:36:03.615Z,10.67
2022-11-14T11:46:03.632Z,12.09
2022-11-14T11:56:03.613Z,13.02
2022-11-14T12:06:03.570Z,10.33
2022-11-14T12:16:03.826Z,10.02
2022-11-14T12:26:03.713Z,9.80
2022-11-14T12:36:03.575Z,14.54
2022-11-14T12:46:03.743Z,16.00
2022-11-14T12:56:03.570Z,16.19
2022-11-14T13:06:03.658Z,13.91
2022-11-14T13:16:03.586Z,17.61
2022-11-14T13:26:03.589Z,19.73
2022-11-14T13:36:05.490Z,14.58
2022-11-14T13:46:03.610Z,13.41
2022-11-14T13:56:03.591Z,14.83
2022-11-14T14:06:05.845Z,13.50
2022-11-14T14:16:03.677Z,10.51
2022-11-14T14:26:03.552Z,10.49
2022-11-14T14:36:03.614Z,7.60
2022-11-14T14:46:03.589Z,7.72
2022-11-14T14:56:03.657Z,5.33
2022-11-14T15:06:03.732Z,4.72
2022-11-14T15:16:03.556Z,3.96
2022-11-14T15:26:03.606Z,1.88
2022-11-14T15:36:03.613Z,4.64
2022-11-14T15:46:03.646Z,3.88
2022-11-14T15:56:03.613Z,4.42
2022-11-14T16:06:03.732Z,6.29
2022-11-14T16:16:03.539Z,6.68
2022-11-14T16:26:03.705Z,4.52
2022-11-14T16:36:03.797Z,5.40
2022-11-14T16:46:03.740Z,2.57
2022-11-14T16:56:03.824Z,0.01
2022-11-14T17:06:03.780Z,6.22
2022-11-14T17:16:03.899Z,5.64
2022-11-14T17:26:03.686Z,6.29
2022-11-14T17:36:03.856Z,7.15
2022-11-14T17:46:03.730Z,9.99
2022-11-14T17:56:03.775Z,11.69
2022-11-14T18:06:03.773Z,10.28
2022-11-14T18:16:03.835Z,6.84
2022-11-14T18:26:03.927Z,7.83
2022-11-14T18:36:03.916Z,7.76
2022-11-14T18:46:04.108Z,9.71
2022-11-14T18:56:04.373Z,6.84
2022-11-14T19:06:04.390Z,5.89
2022-11-14T19:16:04.501Z,11.09
